createdAt,value
2023-04-23T00:19:33.783Z,100
2023-04-23T00:29:34.426Z,100
2023-04-23T00:39:34.581Z,100
2023-04-23T00:49:35.213Z,100
2023-04-23T00:59:35.790Z,100
2023-04-23T01:09:36.613Z,100
2023-04-23T01:19:36.850Z,100
2023-04-23T01:29:37.310Z,100
2023-04-23T01:59:39.135Z,100
2023-04-23T02:09:39.363Z,100
2023-04-23T02:19:40.050Z,100
2023-04-23T02:29:40.825Z,100
2023-04-23T02:39:41.320Z,100
2023-04-23T02:49:42.059Z,100
2023-04-23T02:59:42.917Z,100
2023-04-23T03:09:43.936Z,100
2023-04-23T03:19:44.093Z,100
2023-04-23T03:29:44.657Z,100
2023-04-23T03:39:44.957Z,100
2023-04-23T03:49:45.123Z,100
2023-04-23T04:09:46.569Z,100
2023-04-23T04:29:48.339Z,100
2023-04-23T04:49:49.047Z,100
2023-04-23T04:59:49.769Z,100
2023-04-23T05:09:49.945Z,100
2023-04-23T05:19:50.660Z,100
2023-04-23T05:29:50.873Z,100
2023-04-23T05:39:51.430Z,100
2023-04-23T05:49:51.963Z,100
2023-04-23T05:59:52.393Z,100
2023-04-23T06:09:52.708Z,100
2023-04-23T06:19:53.431Z,100
2023-04-23T06:29:53.831Z,100
2023-04-23T06:39:54.212Z,100
2023-04-23T06:49:54.933Z,100
2023-04-23T06:59:54.880Z,100
2023-04-23T07:09:55.682Z,100
2023-04-23T07:19:56.019Z,100
2023-04-23T07:29:56.742Z,100
2023-04-23T07:39:57.494Z,98
2023-04-23T07:49:58.262Z,97
2023-04-23T07:59:58.355Z,94
2023-04-23T08:09:58.725Z,90
2023-04-23T08:19:59.667Z,89
2023-04-23T08:30:00.044Z,86
2023-04-23T08:30:21.918Z,86
2023-04-23T08:40:06.519Z,86
2023-04-23T08:50:07.160Z,82
2023-04-23T09:00:08.004Z,82
2023-04-23T09:10:08.819Z,83
2023-04-23T09:20:09.052Z,80
2023-04-23T09:30:09.355Z,79
2023-04-23T09:40:09.825Z,79
2023-04-23T09:50:10.116Z,78
2023-04-23T10:20:11.190Z,73
2023-04-23T10:30:12.047Z,72
2023-04-23T10:40:12.384Z,70
2023-04-23T10:50:12.644Z,69
2023-04-23T11:00:12.995Z,68
2023-04-23T11:10:13.662Z,66
2023-04-23T11:20:14.350Z,67
2023-04-23T11:30:14.924Z,67
2023-04-23T11:40:15.104Z,66
2023-04-23T11:50:15.319Z,67
2023-04-23T12:10:16.614Z,66
2023-04-23T12:20:16.764Z,65
2023-04-23T12:30:17.295Z,74
2023-04-23T12:40:17.431Z,77
2023-04-23T12:50:17.752Z,72
2023-04-23T13:00:18.789Z,71
2023-04-23T13:10:19.453Z,69
2023-04-23T13:20:20.202Z,68
2023-04-23T13:30:21.059Z,67
2023-04-23T13:40:22.147Z,66
2023-04-23T13:50:23.122Z,64
2023-04-23T14:00:23.828Z,61
2023-04-23T14:10:24.480Z,63
2023-04-23T14:20:25.205Z,59
2023-04-23T14:30:26.277Z,58
2023-04-23T14:40:26.590Z,59
2023-04-23T14:50:27.554Z,59
2023-04-23T15:00:28.246Z,59
2023-04-23T15:10:28.443Z,57
2023-04-23T15:20:29.340Z,56
2023-04-23T15:30:29.712Z,55
2023-04-23T15:40:30.794Z,56
2023-04-23T15:50:30.988Z,56
2023-04-23T16:00:31.289Z,60
2023-04-23T16:10:32.324Z,61
2023-04-23T16:20:33.158Z,66
2023-04-23T16:40:33.803Z,76
2023-04-23T16:50:33.972Z,78
2023-04-23T17:00:34.402Z,81
2023-04-23T17:10:34.629Z,87
2023-04-23T17:30:36.141Z,92
2023-04-23T17:40:38.167Z,94
2023-04-23T17:50:38.066Z,96
2023-04-23T18:00:38.790Z,98
2023-04-23T18:10:39.255Z,99
2023-04-23T18:30:40.383Z,100
2023-04-23T18:50:40.797Z,100
2023-04-23T19:00:41.042Z,100
2023-04-23T19:10:42.070Z,100
2023-04-23T19:20:42.641Z,100
2023-04-23T19:30:43.234Z,100
2023-04-23T19:40:43.872Z,100
2023-04-23T19:50:44.389Z,100
2023-04-23T20:00:45.316Z,100
2023-04-23T20:10:45.581Z,100
2023-04-23T20:20:46.374Z,100
2023-04-23T20:31:49.715Z,100
2023-04-23T20:41:42.842Z,100
2023-04-23T20:51:43.815Z,100
2023-04-23T21:01:44.405Z,98
2023-04-23T21:11:45.372Z,96
2023-04-23T21:21:45.768Z,96
2023-04-23T21:31:46.385Z,100
2023-04-23T21:41:46.545Z,100
2023-04-23T22:01:47.980Z,100
2023-04-23T22:12:00.941Z,100
2023-04-23T22:21:48.855Z,100
2023-04-23T22:31:49.059Z,100
2023-04-23T22:41:49.323Z,100
2023-04-23T22:51:49.748Z,98
2023-04-23T23:01:50.424Z,95
2023-04-23T23:11:50.576Z,94
2023-04-23T23:21:51.145Z,94
2023-04-23T23:31:51.436Z,93
2023-04-23T23:41:51.958Z,93
2023-04-23T23:51:52.705Z,93
